.
WxDataArchive / Data Records for 2013-03-20
2013-03-19 March 2013 2013-03-21

Data Records for Wednesday, 20 March 2013

Time	Temp	Chill	HIndex	Humid	Dewpt	 Wind 	HiWind	WindDir	Rain 	Barom 
-----	----	-----	------	-----	-----	------	------	-------	-----	----- 
00:00	30.6	30.6	30.6	53	15.5	2	6	248	0.00	30.035 
00:05	30.4	30.4	30.4	53	15.3	2	5	248	0.00	30.035 
00:10	30.3	30.3	30.3	53	15.2	3	7	270	0.00	30.035 
00:15	30.1	30.1	30.1	54	15.5	3	7	270	0.00	30.034 
00:20	30.1	30.1	30.1	53	15.1	2	3	270	0.00	30.034 
00:25	30.0	30.0	30.0	53	15.0	3	9	270	0.00	30.034 
00:30	29.8	29.8	29.8	53	14.8	3	7	248	0.00	30.031 
00:35	29.8	29.8	29.8	53	14.8	3	7	248	0.00	30.031 
00:40	29.7	29.7	29.7	53	14.7	2	5	270	0.00	30.031 
00:45	29.5	29.5	29.5	53	14.5	2	5	270	0.00	30.030 
00:50	29.4	29.4	29.4	52	14.0	2	6	270	0.00	30.030 
00:55	29.3	29.3	29.3	52	13.9	2	5	248	0.00	30.030 
01:00	29.1	29.1	29.1	53	14.1	1	4	270	0.00	30.030 
01:05	29.0	29.0	29.0	53	14.0	2	5	270	0.00	30.030 
01:10	29.0	29.0	29.0	53	14.0	2	5	248	0.00	30.030 
01:15	29.0	29.0	29.0	53	14.0	3	5	270	0.00	30.027 
01:20	28.8	28.8	28.8	53	13.9	2	4	248	0.00	30.027 
01:25	28.7	28.7	28.7	53	13.8	2	6	270	0.00	30.027 
01:30	28.7	28.7	28.7	53	13.8	2	5	270	0.00	30.025 
01:35	28.7	28.7	28.7	53	13.8	2	5	270	0.00	30.025 
01:40	28.5	28.5	28.5	53	13.6	2	4	248	0.00	30.025 
01:45	28.4	28.4	28.4	52	13.0	2	4	270	0.00	30.023 
01:50	28.2	28.2	28.2	53	13.3	2	6	248	0.00	30.023 
01:55	28.2	28.2	28.2	53	13.3	2	5	248	0.00	30.023 
02:00	28.1	28.1	28.1	53	13.2	2	5	270	0.00	30.023 
02:05	28.1	28.1	28.1	53	13.2	1	5	270	0.00	30.023 
02:10	27.9	27.9	27.9	53	13.0	2	5	270	0.00	30.023 
02:15	27.8	27.8	27.8	53	12.9	2	4	248	0.00	30.019 
02:20	27.8	27.8	27.8	52	12.5	3	5	270	0.00	30.019 
02:25	27.8	27.8	27.8	52	12.5	2	5	270	0.00	30.019 
02:30	27.6	27.6	27.6	53	12.7	2	3	248	0.00	30.019 
02:35	27.5	27.5	27.5	52	12.2	2	5	248	0.00	30.019 
02:40	27.5	27.5	27.5	52	12.2	2	4	270	0.00	30.019 
02:45	27.3	27.3	27.3	52	12.0	1	5	270	0.00	30.015 
02:50	27.3	27.3	27.3	52	12.0	2	6	248	0.00	30.015 
02:55	27.2	27.2	27.2	53	12.4	2	5	248	0.00	30.015 
03:00	27.2	27.2	27.2	53	12.4	1	5	248	0.00	30.014 
03:05	27.0	27.0	27.0	53	12.2	1	5	248	0.00	30.014 
03:10	26.9	26.9	26.9	54	12.5	1	4	248	0.00	30.014 
03:15	26.7	26.7	26.7	54	12.3	1	2	248	0.00	30.014 
03:20	26.7	26.7	26.7	54	12.3	1	3	248	0.00	30.014 
03:25	26.6	26.6	26.6	54	12.2	1	4	248	0.00	30.014 
03:30	26.6	26.6	26.6	55	12.6	1	3	248	0.00	30.007 
03:35	26.4	26.4	26.4	55	12.5	0	2	248	0.00	30.007 
03:40	26.3	26.3	26.3	55	12.4	1	3	270	0.00	30.007 
03:45	26.3	26.3	26.3	56	12.8	1	3	248	0.00	29.998 
03:50	26.3	26.3	26.3	56	12.8	1	2	248	0.00	29.998 
03:55	26.1	26.1	26.1	56	12.6	1	2	248	0.00	29.998 
04:00	26.1	26.1	26.1	56	12.6	1	3	248	0.00	29.990 
04:05	26.0	26.0	26.0	56	12.5	0	1	248	0.00	29.990 
04:10	25.8	25.8	25.8	57	12.7	0	1	248	0.00	29.990 
04:15	25.7	25.7	25.7	57	12.6	0	1	248	0.00	29.978 
04:20	25.6	25.6	25.6	58	12.9	0	3	248	0.00	29.978 
04:25	25.6	25.6	25.6	58	12.9	0	3	270	0.00	29.978 
04:30	25.6	25.6	25.6	58	12.9	0	3	248	0.00	29.977 
04:35	25.4	25.4	25.4	58	12.7	0	2	248	0.00	29.977 
04:40	25.3	25.3	25.3	59	13.0	0	1	248	0.00	29.977 
04:45	25.1	25.1	25.1	59	12.8	0	2	248	0.00	29.986 
04:50	25.1	25.1	25.1	60	13.2	0	1	248	0.00	29.986 
04:55	25.1	25.1	25.1	60	13.2	0	2	248	0.00	29.986 
05:00	25.1	25.1	25.1	61	13.6	0	2	248	0.00	29.986 
05:05	25.0	25.0	25.0	61	13.5	1	3	248	0.00	29.986 
05:10	25.0	25.0	25.0	62	13.8	0	2	248	0.00	29.986 
05:15	25.0	25.0	25.0	62	13.8	0	1	248	0.00	29.983 
05:20	24.8	24.8	24.8	62	13.7	0	2	248	0.00	29.983 
05:25	24.8	24.8	24.8	62	13.7	0	3	248	0.00	29.983 
05:30	24.8	24.8	24.8	62	13.7	0	5	225	0.00	29.981 
05:35	25.0	25.0	25.0	62	13.8	1	4	248	0.00	29.981 
05:40	25.0	25.0	25.0	62	13.8	0	2	248	0.00	29.981 
05:45	25.1	25.1	25.1	62	13.9	1	3	248	0.00	29.982 
05:50	25.3	25.3	25.3	62	14.1	1	3	248	0.00	29.982 
05:55	25.3	25.3	25.3	61	13.8	0	2	248	0.00	29.982 
06:00	25.3	25.3	25.3	62	14.1	2	5	248	0.00	29.981 
06:05	25.4	25.4	25.4	62	14.2	2	3	248	0.00	29.981 
06:10	25.4	25.4	25.4	63	14.6	2	4	270	0.00	29.981 
06:15	25.4	25.4	25.4	64	14.9	1	4	270	0.00	29.981 
06:20	25.3	25.3	25.3	64	14.9	1	4	248	0.00	29.981 
06:25	25.3	25.3	25.3	64	14.9	2	7	248	0.00	29.981 
06:30	25.3	25.3	25.3	65	15.2	2	4	248	0.00	29.983 
06:35	25.1	25.1	25.1	65	15.0	2	4	248	0.00	29.983 
06:40	25.0	25.0	25.0	66	15.3	1	4	270	0.00	29.983 
06:45	25.0	25.0	25.0	66	15.3	1	3	248	0.00	29.983 
06:50	24.8	24.8	24.8	67	15.4	1	2	248	0.00	29.983 
06:55	24.8	24.8	24.8	67	15.4	1	3	248	0.00	29.983 
07:00	24.8	24.8	24.8	68	15.8	1	3	270	0.00	29.985 
07:05	24.8	24.8	24.8	68	15.8	1	3	270	0.00	29.985 
07:10	24.8	24.8	24.8	68	15.8	0	2	270	0.00	29.985 
07:15	24.8	24.8	24.8	68	15.8	0	2	270	0.00	29.993 
07:20	24.8	24.8	24.8	69	16.1	0	2	270	0.00	29.993 
07:25	24.7	24.7	24.7	69	16.0	0	1	270	0.00	29.993 
07:30	24.7	24.7	24.7	69	16.0	0	2	270	0.00	29.997 
07:35	24.5	24.5	24.5	69	15.8	0	3	270	0.00	29.997 
07:40	24.4	24.4	24.4	69	15.7	1	3	270	0.00	29.997 
07:45	24.4	24.4	24.4	65	14.3	1	4	338	0.00	30.003 
07:50	24.2	24.2	24.2	64	13.8	2	4	270	0.00	30.003 
07:55	24.2	24.2	24.2	63	13.4	1	3	315	0.00	30.003 
08:00	24.2	24.2	24.2	62	13.1	1	3	315	0.00	30.004 
08:05	24.2	24.2	24.2	62	13.1	1	3	292	0.00	30.004 
08:10	24.1	24.1	24.1	62	13.0	1	3	315	0.00	30.004 
08:15	24.1	24.1	24.1	62	13.0	2	4	270	0.00	30.009 
08:20	23.9	23.9	23.9	61	12.4	2	5	270	0.00	30.009 
08:25	23.9	23.9	23.9	61	12.4	2	5	270	0.00	30.009 
08:30	24.1	24.1	24.1	61	12.6	0	2	248	0.00	30.017 
08:35	24.1	24.1	24.1	61	12.6	2	4	248	0.00	30.017 
08:40	24.1	24.1	24.1	60	12.3	2	5	315	0.00	30.017 
08:45	24.1	24.1	24.1	60	12.3	1	4	315	0.00	30.021 
08:50	23.9	23.9	23.9	59	11.7	2	6	315	0.00	30.021 
08:55	23.9	23.9	23.9	59	11.7	1	5	338	0.00	30.021 
09:00	23.9	23.9	23.9	59	11.7	2	5	315	0.00	30.023 
09:05	24.1	24.1	24.1	59	11.9	2	6	292	0.00	30.023 
09:10	24.2	24.2	24.2	59	12.0	1	5	315	0.00	30.023 
09:15	24.4	24.4	24.4	58	11.8	2	5	292	0.00	30.028 
09:20	24.5	24.5	24.5	57	11.5	3	7	248	0.00	30.028 
09:25	24.5	24.5	24.5	57	11.5	3	7	338	0.00	30.028 
09:30	24.5	24.5	24.5	56	11.1	3	6	270	0.00	30.028 
09:35	24.5	24.5	24.5	57	11.5	3	7	270	0.00	30.028 
09:40	24.8	24.8	24.8	57	11.8	2	4	270	0.00	30.028 
09:45	25.0	25.0	25.0	55	11.1	2	7	248	0.00	30.021 
09:50	25.1	25.1	25.1	54	10.8	2	6	248	0.00	30.021 
09:55	25.3	25.3	25.3	53	10.6	3	6	315	0.00	30.021 
10:00	25.3	25.3	25.3	53	10.6	3	7	270	0.00	30.023 
10:05	25.3	25.3	25.3	53	10.6	2	5	248	0.00	30.023 
10:10	25.4	25.4	25.4	52	10.3	3	6	270	0.00	30.023 
10:15	25.3	20.3	25.3	51	9.7	4	7	270	0.00	30.023 
10:20	25.4	25.4	25.4	51	9.8	3	9	248	0.00	30.023 
10:25	25.7	25.7	25.7	51	10.1	3	9	248	0.00	30.023 
10:30	25.8	25.8	25.8	50	9.8	3	5	248	0.00	30.018 
10:35	25.8	25.8	25.8	50	9.8	3	7	248	0.00	30.018 
10:40	26.3	26.3	26.3	50	10.2	2	4	248	0.00	30.018 
10:45	26.3	26.3	26.3	49	9.8	2	4	270	0.00	30.016 
10:50	26.6	26.6	26.6	50	10.5	2	5	248	0.00	30.016 
10:55	26.9	26.9	26.9	48	9.9	2	5	248	0.00	30.016 
11:00	26.6	26.6	26.6	49	10.0	3	6	248	0.00	30.014 
11:05	26.7	26.7	26.7	49	10.1	2	9	225	0.00	30.014 
11:10	27.2	27.2	27.2	50	11.1	2	5	248	0.00	30.014 
11:15	27.0	27.0	27.0	48	10.0	2	5	248	0.00	30.015 
11:20	26.6	26.6	26.6	48	9.6	2	5	270	0.00	30.015 
11:25	27.0	27.0	27.0	50	10.9	3	9	248	0.00	30.015 
11:30	27.0	27.0	27.0	49	10.4	2	7	248	0.00	30.014 
11:35	26.4	26.4	26.4	49	9.9	2	5	315	0.00	30.014 
11:40	26.9	26.9	26.9	49	10.3	2	5	248	0.00	30.014 
11:45	26.7	26.7	26.7	49	10.1	2	5	270	0.00	30.014 
11:50	27.2	27.2	27.2	47	9.7	2	5	270	0.00	30.014 
11:55	27.5	27.5	27.5	48	10.4	3	6	270	0.00	30.014 
12:00	27.5	27.5	27.5	48	10.4	3	7	270	0.00	30.012 
12:05	27.6	27.6	27.6	48	10.5	2	4	248	0.00	30.012 
12:10	28.2	28.2	28.2	47	10.6	2	6	248	0.00	30.012 
12:15	28.4	28.4	28.4	46	10.3	3	7	270	0.00	30.005 
12:20	28.5	28.5	28.5	46	10.4	2	5	248	0.00	30.005 
12:25	29.0	29.0	29.0	47	11.3	2	6	338	0.00	30.005 
12:30	28.4	28.4	28.4	47	10.8	3	5	270	0.00	30.010 
12:35	27.8	27.8	27.8	49	11.2	2	4	270	0.00	30.010 
12:40	28.1	28.1	28.1	47	10.5	3	5	248	0.00	30.010 
12:45	27.9	27.9	27.9	46	9.8	3	6	248	0.00	30.011 
12:50	27.2	27.2	27.2	45	8.7	2	6	292	0.00	30.011 
12:55	27.8	27.8	27.8	47	10.2	2	4	248	0.00	30.011 
13:00	27.8	27.8	27.8	46	9.7	2	5	270	0.00	30.008 
13:05	27.5	27.5	27.5	46	9.5	2	6	248	0.00	30.008 
13:10	28.2	28.2	28.2	47	10.6	2	4	248	0.00	30.008 
13:15	28.1	28.1	28.1	43	8.5	3	5	248	0.00	30.003 
13:20	28.2	28.2	28.2	46	10.1	2	5	248	0.00	30.003 
13:25	28.4	28.4	28.4	45	9.8	2	5	270	0.00	30.003 
13:30	28.2	28.2	28.2	44	9.1	3	9	248	0.00	30.000 
13:35	29.0	29.0	29.0	46	10.8	3	8	248	0.00	30.000 
13:40	29.8	29.8	29.8	43	10.1	3	9	248	0.00	30.000 
13:45	29.0	29.0	29.0	42	8.8	3	6	270	0.00	30.002 
13:50	28.1	28.1	28.1	43	8.5	3	5	270	0.00	30.002 
13:55	27.5	27.5	27.5	44	8.5	3	6	270	0.00	30.002 
14:00	27.3	27.3	27.3	45	8.8	3	6	338	0.00	30.001 
14:05	27.5	27.5	27.5	46	9.5	3	6	270	0.00	30.001 
14:10	27.5	27.5	27.5	46	9.5	2	6	248	0.00	30.001 
14:15	27.6	27.6	27.6	46	9.6	1	3	248	0.00	29.998 
14:20	27.8	27.8	27.8	45	9.3	2	5	270	0.00	29.998 
14:25	27.6	27.6	27.6	46	9.6	2	5	248	0.00	29.998 
14:30	27.6	27.6	27.6	45	9.1	2	5	248	0.00	29.994 
14:35	27.3	27.3	27.3	46	9.3	2	7	292	0.00	29.994 
14:40	27.5	27.5	27.5	47	9.9	1	3	270	0.00	29.994 
14:45	27.5	27.5	27.5	46	9.5	2	5	292	0.00	29.989 
14:50	27.9	27.9	27.9	47	10.3	3	6	248	0.00	29.989 
14:55	28.4	28.4	28.4	46	10.3	3	6	248	0.00	29.989 
15:00	28.2	28.2	28.2	46	10.1	3	7	248	0.00	29.986 
15:05	28.7	28.7	28.7	44	9.6	3	6	270	0.00	29.986 
15:10	29.1	29.1	29.1	45	10.4	3	7	270	0.00	29.986 
15:15	29.0	29.0	29.0	46	10.8	3	6	248	0.00	29.986 
15:20	28.8	28.8	28.8	47	11.1	2	4	270	0.00	29.986 
15:25	28.4	28.4	28.4	50	12.2	2	6	270	0.00	29.986 
15:30	27.8	27.8	27.8	48	10.7	3	6	270	0.00	29.984 
15:35	27.2	27.2	27.2	50	11.1	3	7	270	0.00	29.984 
15:40	27.0	27.0	27.0	50	10.9	2	5	248	0.00	29.984 
15:45	27.0	27.0	27.0	51	11.3	3	7	270	0.00	29.988 
15:50	27.0	27.0	27.0	51	11.3	1	4	270	0.00	29.988 
15:55	26.9	26.9	26.9	50	10.8	2	5	270	0.00	29.988 
16:00	26.7	26.7	26.7	49	10.1	2	5	270	0.00	29.985 
16:05	27.0	27.0	27.0	49	10.4	3	6	270	0.00	29.985 
16:10	27.2	27.2	27.2	50	11.1	3	6	248	0.00	29.985 
16:15	27.6	27.6	27.6	51	11.9	3	5	270	0.00	29.981 
16:20	27.2	27.2	27.2	50	11.1	3	7	270	0.00	29.981 
16:25	26.6	26.6	26.6	50	10.5	3	6	270	0.00	29.981 
16:30	26.9	26.9	26.9	50	10.8	2	5	248	0.00	29.985 
16:35	27.0	27.0	27.0	46	9.0	2	6	248	0.00	29.985 
16:40	27.0	27.0	27.0	46	9.0	2	4	270	0.00	29.985 
16:45	26.9	26.9	26.9	46	8.9	2	7	270	0.00	29.982 
16:50	26.7	26.7	26.7	46	8.7	2	7	248	0.00	29.982 
16:55	26.6	26.6	26.6	45	8.2	3	6	292	0.00	29.982 
17:00	26.7	26.7	26.7	45	8.2	2	5	248	0.00	29.980 
17:05	26.7	26.7	26.7	46	8.7	3	7	270	0.00	29.980 
17:10	26.4	26.4	26.4	46	8.5	3	7	270	0.00	29.980 
17:15	26.4	26.4	26.4	47	8.9	2	4	270	0.00	29.983 
17:20	26.4	26.4	26.4	44	7.5	2	6	270	0.00	29.983 
17:25	26.1	26.1	26.1	48	9.1	2	5	315	0.00	29.983 
17:30	26.3	26.3	26.3	46	8.4	3	5	270	0.00	29.979 
17:35	26.6	26.6	26.6	46	8.6	2	4	270	0.00	29.979 
17:40	26.6	26.6	26.6	45	8.2	3	6	270	0.00	29.979 
17:45	26.4	26.4	26.4	46	8.5	3	5	270	0.00	29.977 
17:50	26.3	26.3	26.3	46	8.4	2	6	248	0.00	29.977 
17:55	26.1	26.1	26.1	44	7.2	3	9	315	0.00	29.977 
18:00	26.3	26.3	26.3	45	7.9	2	4	315	0.00	29.981 
18:05	26.1	26.1	26.1	45	7.7	2	7	248	0.00	29.981 
18:10	26.0	26.0	26.0	45	7.6	2	6	248	0.00	29.981 
18:15	26.3	26.3	26.3	46	8.4	2	5	315	0.00	29.985 
18:20	26.1	26.1	26.1	44	7.2	3	5	270	0.00	29.985 
18:25	26.0	26.0	26.0	44	7.1	3	5	248	0.00	29.985 
18:30	25.8	25.8	25.8	43	6.4	3	7	270	0.00	29.988 
18:35	25.7	25.7	25.7	44	6.8	2	5	270	0.00	29.988 
18:40	25.8	25.8	25.8	45	7.4	3	6	270	0.00	29.988 
18:45	25.6	25.6	25.6	46	7.7	2	5	270	0.00	29.990 
18:50	25.4	25.4	25.4	46	7.5	2	5	270	0.00	29.990 
18:55	25.3	25.3	25.3	46	7.4	2	5	270	0.00	29.990 
19:00	25.0	25.0	25.0	47	7.6	3	7	270	0.00	29.993 
19:05	24.8	24.8	24.8	49	8.4	3	5	248	0.00	29.993 
19:10	24.7	24.7	24.7	49	8.3	2	5	248	0.00	29.993 
19:15	24.7	24.7	24.7	49	8.3	1	4	270	0.00	29.998 
19:20	24.7	24.7	24.7	48	7.8	1	4	292	0.00	29.998 
19:25	24.8	24.8	24.8	47	7.5	1	4	292	0.00	29.998 
19:30	24.5	24.5	24.5	46	6.7	2	6	248	0.00	30.005 
19:35	24.4	24.4	24.4	47	7.1	2	4	248	0.00	30.005 
19:40	24.2	24.2	24.2	48	7.4	1	4	248	0.00	30.005 
19:45	24.1	24.1	24.1	48	7.3	1	5	270	0.00	30.008 
19:50	23.9	23.9	23.9	49	7.6	1	5	270	0.00	30.008 
19:55	23.8	23.8	23.8	49	7.5	1	5	338	0.00	30.008 
20:00	23.5	23.5	23.5	49	7.2	2	6	270	0.00	30.009 
20:05	23.2	23.2	23.2	50	7.4	2	6	315	0.00	30.009 
20:10	23.0	23.0	23.0	50	7.2	1	4	270	0.00	30.009 
20:15	22.9	22.9	22.9	51	7.5	1	4	292	0.00	30.018 
20:20	22.7	22.7	22.7	52	7.7	1	5	248	0.00	30.018 
20:25	22.4	22.4	22.4	53	7.9	2	6	0	0.00	30.018 
20:30	22.4	22.4	22.4	54	8.3	1	3	315	0.00	30.020 
20:35	22.2	22.2	22.2	55	8.5	1	3	338	0.00	30.020 
20:40	22.1	22.1	22.1	54	8.0	1	3	248	0.00	30.020 
20:45	22.1	22.1	22.1	54	8.0	0	2	338	0.00	30.021 
20:50	21.9	21.9	21.9	53	7.4	1	3	338	0.00	30.021 
20:55	21.6	21.6	21.6	54	7.6	1	4	292	0.00	30.021 
21:00	21.6	21.6	21.6	54	7.6	1	2	270	0.00	30.024 
21:05	21.6	21.6	21.6	54	7.6	1	3	292	0.00	30.024 
21:10	21.4	21.4	21.4	54	7.4	1	2	292	0.00	30.024 
21:15	21.4	21.4	21.4	54	7.4	0	2	292	0.00	30.025 
21:20	21.4	21.4	21.4	54	7.4	0	2	292	0.00	30.025 
21:25	21.1	21.1	21.1	54	7.1	1	4	292	0.00	30.025 
21:30	21.0	21.0	21.0	54	7.0	1	5	338	0.00	30.025 
21:35	20.8	20.8	20.8	54	6.8	1	3	292	0.00	30.025 
21:40	20.6	20.6	20.6	55	7.0	1	4	248	0.00	30.025 
21:45	20.6	20.6	20.6	55	7.0	1	4	292	0.00	30.024 
21:50	20.5	20.5	20.5	55	6.9	0	2	292	0.00	30.024 
21:55	20.3	20.3	20.3	56	7.1	0	2	292	0.00	30.024 
22:00	20.3	20.3	20.3	56	7.1	1	3	315	0.00	30.026 
22:05	20.5	20.5	20.5	56	7.3	1	4	315	0.00	30.026 
22:10	20.5	20.5	20.5	56	7.3	0	1	315	0.00	30.026 
22:15	20.3	20.3	20.3	57	7.5	1	4	315	0.00	30.020 
22:20	20.3	20.3	20.3	57	7.5	0	2	248	0.00	30.020 
22:25	20.3	20.3	20.3	57	7.5	0	1	248	0.00	30.020 
22:30	20.3	20.3	20.3	58	7.9	0	2	248	0.00	30.020 
22:35	20.3	20.3	20.3	58	7.9	0	3	248	0.00	30.020 
22:40	20.2	20.2	20.2	58	7.8	0	1	338	0.00	30.020 
22:45	20.2	20.2	20.2	58	7.8	1	2	338	0.00	30.019 
22:50	20.2	20.2	20.2	58	7.8	0	1	338	0.00	30.019 
22:55	20.0	20.0	20.0	58	7.6	0	1	338	0.00	30.019 
23:00	19.9	19.9	19.9	59	7.9	0	2	338	0.00	30.022 
23:05	19.7	19.7	19.7	59	7.7	0	2	338	0.00	30.022 
23:10	19.7	19.7	19.7	60	8.1	0	1	315	0.00	30.022 
23:15	19.5	19.5	19.5	61	8.3	0	1	315	0.00	30.019 
23:20	19.5	19.5	19.5	62	8.6	0	3	22	0.00	30.019 
23:25	19.4	19.4	19.4	63	8.9	1	2	0	0.00	30.019 
23:30	19.4	19.4	19.4	64	9.2	0	2	338	0.00	30.019 
23:35	19.4	19.4	19.4	65	9.6	0	2	338	0.00	30.019 
23:40	19.4	19.4	19.4	65	9.6	0	1	338	0.00	30.019 
23:45	19.5	19.5	19.5	66	10.0	0	1	338	0.00	30.012 
23:50	19.5	19.5	19.5	67	10.4	0	1	338	0.00	30.012 
23:55	19.5	19.5	19.5	68	10.7	0	2	338	0.00	30.012 

CoCoRaHS
IN-AL-39
A2 Web Hosting
Creative Commons License
GoDaddy
search engine by freefind advanced

loaded 2018-11-17 18:19:16 • last modified 2010-11-18 10:43:29
Privacy PolicyDisclaimer
• wx.awcolley.com is powered by PmWiki v.2002016 •
• all content (unless otherwise noted) © 2018 A W Colley